Etusivu
METAR-TAF:

METAR-TAF

Lentoasemat :

Diori Hamanin kansainvälinen lentoasema

Niamey, Niger

Leveyspiiri: 13-29N, Pituuspiiri: 002-10E, korkeus merenpinnasta: 223 m

Tämänhetkinen sää

Tämä raportti tehtiin 27 minuuttia sitten, kello 13.00 UTC
Tuuli 7 kn lännestä/luoteesta, vaihdellen etelän/lounaan ja pohjoisen välillä
Lämpötila 40°C
Kosteus 23%
Ilmanpaine 1007 hPa
Näkyvyys: 8000 m

METAR: DRRN 201300Z 29007KT 200V360 8000 NSC 40/15 Q1007 NOSIG

Aika: 14:27 (13:27 UTC)

Sääennuste

Tämä raportti tehtiin 2 tuntia ja 27 minuuttia sitten, kello 11.00 UTC
Ennuste voimassa 20. päivästä klo 12 UTC - 21. päivään klo 18 UTC
Tuuli 10 kn lännestä/lounaasta
Näkyvyys: 6000 m
Todennäköisyys 40% :
Ajoittain
20. päivästä klo 16 UTC - 20. päivään klo 21 UTC
Muutamia pilviä 4500 ft:n korkeudessa, Cumulonimbus.
ukkosmyrsky

TAF: DRRN 201100Z 2012/2118 24010KT 6000 NSC PROB40 TEMPO 2016/2021 TS FEW045CB

Säähavainnot ja -ennusteet yli 4000 lentoasemalta (METAR- ja TAF-raportit).

Käytössä olevat sääasemat on merkitty karttaan keltaisilla ja punaisilla pisteillä.

Aseta hiiri pisteen päälle nähdäksesi sääaseman nimen.

Klikkaa sitten nähdäksesi säähavainnot ja -ennusteet.

Kartan vaihtaminen: klikkaa mustalla rastilla varustettuja vihreitä pisteitä, niin voit zoomata sisään; viivalla varustettua vihreää pistettä, niin voit zoomata ulos tai vihreitä nuolia, niin pääset viereisille kartoille.


METAR-TAF: